Time;durP1;ratioP1;P1;durP2;ratioP2;P2;SDS_P1;SDS_P2;PMS_P1;PMS_P2;Temp;Humidity;BMP_temperature;BMP_pressure;BME280_temperature;BME280_humidity;BME280_pressure;Samples;Min_cycle;Max_cycle;Signal;HPM_P1;HPM_P2
2021/12/16 00:05:04;;;;;;;5.38;4.85;;;17.70;62.00;;;;;;5052057;28;20423;-58
2021/12/16 00:07:19;;;;;;;4.88;4.47;;;17.70;62.00;;;;;;5051208;28;20182;-58
2021/12/16 00:09:57;;;;;;;4.68;4.28;;;17.70;62.00;;;;;;5051822;28;20641;-59
2021/12/16 00:31:44;;;;;;;6.25;5.07;;;17.60;62.10;;;;;;5051583;28;20250;-58
2021/12/16 00:34:09;;;;;;;4.85;4.45;;;17.60;62.10;;;;;;5051148;28;20191;-59
2021/12/16 00:36:36;;;;;;;6.10;4.45;;;17.60;62.10;;;;;;5053067;28;20182;-58
2021/12/16 00:39:08;;;;;;;6.00;5.40;;;17.60;62.20;;;;;;5056238;28;20179;-59
2021/12/16 00:41:34;;;;;;;5.82;5.00;;;17.60;62.10;;;;;;5054880;28;20179;-60
2021/12/16 00:44:15;;;;;;;5.90;5.00;;;17.60;62.10;;;;;;5056349;28;20203;-59
2021/12/16 00:47:13;;;;;;;5.57;5.05;;;17.50;62.10;;;;;;5055038;28;20226;-60
2021/12/16 00:49:44;;;;;;;5.60;5.10;;;17.50;62.10;;;;;;5055060;28;20244;-59
2021/12/16 00:55:17;;;;;;;5.25;4.75;;;17.50;62.30;;;;;;5054779;28;20201;-60
2021/12/16 00:57:44;;;;;;;5.18;4.78;;;17.50;62.10;;;;;;5054832;28;20209;-60
2021/12/16 01:00:13;;;;;;;6.13;5.20;;;17.50;62.20;;;;;;5055376;28;20179;-60
2021/12/16 01:02:54;;;;;;;5.65;5.15;;;17.50;62.10;;;;;;5054209;28;20286;-60
2021/12/16 01:35:26;;;;;;;6.05;5.45;;;17.40;62.50;;;;;;5054612;28;20175;-58
2021/12/16 01:51:22;;;;;;;5.72;5.13;;;17.30;62.50;;;;;;5053707;28;20266;-59
2021/12/16 01:59:01;;;;;;;7.82;5.63;;;17.30;62.50;;;;;;5053564;28;20187;-59
2021/12/16 02:01:31;;;;;;;7.28;5.55;;;17.30;62.50;;;;;;5053817;28;20175;-58
2021/12/16 02:04:09;;;;;;;6.32;5.72;;;17.30;62.50;;;;;;5054015;28;20179;-58
2021/12/16 02:06:46;;;;;;;6.53;5.72;;;17.30;62.50;;;;;;5053193;28;20313;-58
2021/12/16 02:09:26;;;;;;;5.80;5.38;;;17.30;62.40;;;;;;5053927;28;20214;-58
2021/12/16 02:12:23;;;;;;;6.50;5.90;;;17.20;62.50;;;;;;5053326;28;20262;-60
2021/12/16 02:31:19;;;;;;;7.18;5.72;;;17.20;62.40;;;;;;5053613;28;20171;-59
2021/12/16 02:36:38;;;;;;;6.63;5.90;;;17.20;62.20;;;;;;5052979;28;20182;-60
2021/12/16 02:39:12;;;;;;;6.80;6.20;;;17.20;62.30;;;;;;5053507;28;20324;-60
2021/12/16 02:41:40;;;;;;;7.13;6.03;;;17.20;62.30;;;;;;5052222;28;20548;-60
2021/12/16 02:49:18;;;;;;;8.05;6.47;;;17.10;62.10;;;;;;5053222;28;20225;-60
2021/12/16 02:51:44;;;;;;;6.32;5.75;;;17.10;62.20;;;;;;5053072;28;20171;-61
2021/12/16 02:54:09;;;;;;;6.28;5.68;;;17.10;62.20;;;;;;5052302;28;20174;-60
2021/12/16 02:56:36;;;;;;;6.60;6.00;;;17.10;62.30;;;;;;5052686;28;20171;-61
2021/12/16 02:59:03;;;;;;;6.10;5.50;;;17.10;62.20;;;;;;5052791;28;20637;-60
2021/12/16 03:01:34;;;;;;;6.53;5.82;;;17.10;62.40;;;;;;5051976;28;20171;-60
2021/12/16 03:04:00;;;;;;;6.90;6.20;;;17.10;62.70;;;;;;5052957;28;20257;-59
2021/12/16 03:06:28;;;;;;;6.50;5.90;;;17.10;62.40;;;;;;5052429;28;20538;-59
2021/12/16 03:08:54;;;;;;;6.60;5.90;;;17.10;62.50;;;;;;5051981;28;20203;-59
2021/12/16 03:11:30;;;;;;;7.90;6.70;;;17.10;62.40;;;;;;5052736;28;20182;-59
2021/12/16 03:21:47;;;;;;;6.78;6.18;;;17.10;62.30;;;;;;5052475;28;20188;-58
2021/12/16 03:35:29;;;;;;;6.97;6.28;;;17.00;62.30;;;;;;5052510;28;20213;-58
2021/12/16 03:38:04;;;;;;;6.82;6.22;;;17.00;62.30;;;;;;5051438;28;20171;-59
2021/12/16 03:40:30;;;;;;;6.97;5.88;;;17.00;62.50;;;;;;5052097;28;20218;-58
2021/12/16 03:43:07;;;;;;;6.00;5.50;;;17.00;62.70;;;;;;5051605;28;20199;-58
2021/12/16 03:48:44;;;;;;;6.90;6.30;;;17.00;62.60;;;;;;5051697;28;20588;-58
2021/12/16 03:51:36;;;;;;;8.15;7.35;;;17.00;62.40;;;;;;5051398;28;20179;-59
2021/12/16 03:54:11;;;;;;;6.80;6.20;;;17.00;62.40;;;;;;5052092;28;20229;-59
2021/12/16 03:56:37;;;;;;;7.38;6.68;;;17.00;62.60;;;;;;5051817;28;20186;-59
2021/12/16 03:59:04;;;;;;;7.68;6.65;;;17.00;62.60;;;;;;5051479;28;20167;-59
2021/12/16 04:01:29;;;;;;;6.55;5.93;;;17.00;62.50;;;;;;5051757;28;20179;-58
2021/12/16 04:03:55;;;;;;;7.10;6.45;;;17.00;62.40;;;;;;5051804;28;20543;-59
2021/12/16 04:06:21;;;;;;;7.22;6.53;;;17.00;62.30;;;;;;5051214;28;20542;-58
2021/12/16 04:08:46;;;;;;;7.30;6.60;;;16.90;62.10;;;;;;5051835;28;20622;-59
2021/12/16 04:11:22;;;;;;;7.65;6.70;;;17.00;62.20;;;;;;5050329;28;20271;-59
2021/12/16 04:13:59;;;;;;;6.88;6.18;;;16.90;62.10;;;;;;5051627;28;20289;-60
2021/12/16 04:16:29;;;;;;;7.18;6.13;;;16.90;62.00;;;;;;5051349;28;20178;-60
2021/12/16 04:18:55;;;;;;;7.18;6.47;;;16.90;61.90;;;;;;5051248;28;20195;-60
2021/12/16 04:21:21;;;;;;;7.20;6.50;;;16.90;62.00;;;;;;5051848;28;20261;-59
2021/12/16 04:23:48;;;;;;;7.57;6.80;;;16.90;61.90;;;;;;5051912;28;20618;-60
2021/12/16 04:26:14;;;;;;;7.65;6.95;;;16.90;61.90;;;;;;5051565;28;20179;-59
2021/12/16 04:28:40;;;;;;;7.60;6.70;;;16.90;61.90;;;;;;5051406;28;20219;-59
2021/12/16 04:31:05;;;;;;;6.95;6.32;;;16.90;61.90;;;;;;5051891;28;20213;-60
2021/12/16 04:33:31;;;;;;;8.43;7.53;;;16.90;61.90;;;;;;5050765;28;20171;-59
2021/12/16 04:35:57;;;;;;;7.93;6.90;;;16.90;61.90;;;;;;5051847;28;20186;-59
2021/12/16 04:38:22;;;;;;;7.80;7.00;;;16.90;61.90;;;;;;5051281;28;20179;-59
2021/12/16 04:40:49;;;;;;;7.63;6.85;;;16.90;62.70;;;;;;5051068;28;20167;-59
2021/12/16 04:43:20;;;;;;;7.05;6.45;;;16.90;61.80;;;;;;5051785;28;20301;-59
2021/12/16 04:45:46;;;;;;;6.82;6.22;;;16.90;61.80;;;;;;5051770;28;20289;-59
2021/12/16 04:48:11;;;;;;;7.93;7.13;;;16.90;61.80;;;;;;5050973;28;20207;-59
2021/12/16 04:50:37;;;;;;;7.57;6.90;;;16.90;61.70;;;;;;5049855;28;20258;-58
2021/12/16 04:53:02;;;;;;;7.28;6.57;;;16.90;61.70;;;;;;5051340;28;20589;-59
2021/12/16 04:55:28;;;;;;;8.70;7.15;;;16.80;61.70;;;;;;5050955;28;20267;-59
2021/12/16 04:57:53;;;;;;;7.38;6.60;;;16.80;61.60;;;;;;5051804;28;20289;-60
2021/12/16 05:00:20;;;;;;;7.72;6.93;;;16.80;61.70;;;;;;5050979;28;20266;-59
2021/12/16 05:02:46;;;;;;;7.85;7.05;;;16.80;61.70;;;;;;5051356;28;20254;-59
2021/12/16 05:05:12;;;;;;;8.35;7.32;;;16.80;61.60;;;;;;5051317;28;20642;-58
2021/12/16 05:07:37;;;;;;;7.68;6.93;;;16.80;61.60;;;;;;5050129;28;20215;-58
2021/12/16 05:10:09;;;;;;;8.38;6.78;;;16.80;61.50;;;;;;5051546;28;20579;-59
2021/12/16 05:12:39;;;;;;;8.13;6.45;;;16.80;61.60;;;;;;5051045;28;20178;-60
2021/12/16 05:15:07;;;;;;;7.22;6.63;;;16.80;61.60;;;;;;5050991;28;20179;-60
2021/12/16 05:17:45;;;;;;;8.50;7.60;;;16.80;61.60;;;;;;5050982;28;20183;-60
2021/12/16 05:20:17;;;;;;;8.73;7.68;;;16.80;61.50;;;;;;5050994;28;20566;-60
2021/12/16 05:26:16;;;;;;;7.18;6.47;;;16.80;61.50;;;;;;5054352;28;20506;-59
2021/12/16 05:28:15;;;;;;;7.00;6.40;;;16.80;61.50;;;;;;5047230;28;20249;-59
2021/12/16 05:30:40;;;;;;;7.93;7.13;;;16.80;61.40;;;;;;5053612;28;20656;-59
2021/12/16 05:33:06;;;;;;;7.43;6.72;;;16.80;61.40;;;;;;5054816;28;20195;-59
2021/12/16 05:35:31;;;;;;;7.57;6.88;;;16.80;61.40;;;;;;5053472;28;20167;-59
2021/12/16 05:37:57;;;;;;;7.40;6.57;;;16.80;61.50;;;;;;5054446;28;20193;-59
2021/12/16 05:40:24;;;;;;;8.15;7.13;;;16.80;61.40;;;;;;5054062;28;20228;-58
2021/12/16 05:42:57;;;;;;;7.40;6.70;;;16.80;61.40;;;;;;5053678;28;20258;-58
2021/12/16 05:45:23;;;;;;;7.65;6.95;;;16.70;61.40;;;;;;5053761;28;20197;-60
2021/12/16 05:47:50;;;;;;;7.00;6.30;;;16.70;61.40;;;;;;5054216;28;20678;-60
2021/12/16 05:50:16;;;;;;;7.72;7.03;;;16.70;61.40;;;;;;5053371;28;20622;-59
2021/12/16 05:52:41;;;;;;;8.27;6.65;;;16.70;61.40;;;;;;5053953;28;20175;-60
2021/12/16 05:55:08;;;;;;;7.80;7.10;;;16.70;61.40;;;;;;5054078;28;20182;-60
2021/12/16 05:57:33;;;;;;;7.90;7.20;;;16.70;61.30;;;;;;5052936;28;20258;-60
2021/12/16 05:59:59;;;;;;;8.40;7.47;;;16.70;61.30;;;;;;5054171;28;20250;-59
2021/12/16 06:02:24;;;;;;;7.78;7.07;;;16.70;61.30;;;;;;5053867;28;20171;-58
2021/12/16 06:04:50;;;;;;;7.22;6.53;;;16.70;61.30;;;;;;5053080;28;20729;-58
2021/12/16 06:07:17;;;;;;;9.13;6.90;;;16.70;61.40;;;;;;5053985;28;20246;-59
2021/12/16 06:09:44;;;;;;;9.15;7.50;;;16.70;61.30;;;;;;5053353;28;20616;-59
2021/12/16 06:12:10;;;;;;;7.15;6.43;;;16.70;61.30;;;;;;5052878;28;20198;-59
2021/12/16 06:26:24;;;;;;;7.32;6.63;;;16.70;61.40;;;;;;5053122;28;20548;-59
2021/12/16 06:28:17;;;;;;;8.50;7.50;;;16.60;61.20;;;;;;5053225;28;20222;-58
2021/12/16 06:30:43;;;;;;;7.93;7.18;;;16.60;61.20;;;;;;5052788;28;20274;-60
2021/12/16 06:33:10;;;;;;;6.82;6.22;;;16.60;61.20;;;;;;5052382;28;20183;-59
2021/12/16 06:35:36;;;;;;;7.05;6.35;;;16.70;61.30;;;;;;5052284;28;20699;-59
2021/12/16 06:38:02;;;;;;;7.28;6.57;;;16.60;61.20;;;;;;5052781;28;20183;-59
2021/12/16 06:40:27;;;;;;;7.07;6.45;;;16.60;61.30;;;;;;5051793;28;20203;-60
2021/12/16 06:42:56;;;;;;;7.32;6.63;;;16.70;61.30;;;;;;5053011;28;20209;-59
2021/12/16 06:45:26;;;;;;;8.20;6.57;;;16.60;61.20;;;;;;5052224;28;20182;-59
2021/12/16 06:47:58;;;;;;;7.53;6.80;;;16.60;61.30;;;;;;5051958;28;20654;-59
2021/12/16 06:51:10;;;;;;;7.45;6.75;;;16.60;61.30;;;;;;5052724;28;20216;-60
2021/12/16 06:53:19;;;;;;;7.90;7.07;;;16.60;61.30;;;;;;5048807;28;20187;-59
2021/12/16 06:55:52;;;;;;;8.68;7.75;;;16.60;61.30;;;;;;5052574;28;20179;-60
2021/12/16 06:58:29;;;;;;;7.38;6.68;;;16.60;61.30;;;;;;5052790;28;20630;-59
2021/12/16 07:01:06;;;;;;;7.03;6.32;;;16.60;61.30;;;;;;5052015;28;20182;-59
2021/12/16 07:03:53;;;;;;;7.70;6.78;;;16.60;61.30;;;;;;5052528;28;20178;-60
2021/12/16 07:06:23;;;;;;;7.45;6.60;;;16.60;61.30;;;;;;5051946;28;20244;-58
2021/12/16 07:08:50;;;;;;;7.55;6.80;;;16.60;61.30;;;;;;5051955;28;20492;-59
2021/12/16 07:11:15;;;;;;;6.88;6.22;;;16.60;61.30;;;;;;5052386;28;20175;-60
2021/12/16 07:13:42;;;;;;;7.50;6.80;;;16.60;61.30;;;;;;5052056;28;20308;-60
2021/12/16 07:16:09;;;;;;;7.25;6.55;;;16.60;61.30;;;;;;5051699;28;20186;-59
2021/12/16 07:18:34;;;;;;;8.55;6.85;;;16.60;61.40;;;;;;5051779;28;20262;-60
2021/12/16 07:21:00;;;;;;;8.15;7.35;;;16.60;61.40;;;;;;5051380;28;20293;-59
2021/12/16 07:23:25;;;;;;;6.70;6.10;;;16.60;61.40;;;;;;5052070;28;20260;-59
2021/12/16 07:25:52;;;;;;;7.22;6.53;;;16.60;61.40;;;;;;5052232;28;20630;-59
2021/12/16 07:28:18;;;;;;;7.47;6.68;;;16.60;61.40;;;;;;5051548;28;20207;-59
2021/12/16 07:30:44;;;;;;;7.03;6.32;;;16.60;61.50;;;;;;5051858;28;20250;-58
2021/12/16 07:33:09;;;;;;;7.65;6.82;;;16.50;61.40;;;;;;5051945;28;20262;-59
2021/12/16 07:35:35;;;;;;;6.63;6.03;;;16.60;61.40;;;;;;5050997;28;20258;-59
2021/12/16 07:38:04;;;;;;;6.40;5.80;;;16.60;61.50;;;;;;5052011;28;20338;-59
2021/12/16 07:40:30;;;;;;;6.55;5.90;;;16.70;61.40;;;;;;5051707;28;20218;-59
2021/12/16 07:45:32;;;;;;;6.20;5.63;;;17.00;61.10;;;;;;5050799;28;20189;-59
2021/12/16 07:47:58;;;;;;;5.63;5.00;;;17.20;60.80;;;;;;5051627;28;20698;-59
2021/12/16 07:50:24;;;;;;;6.07;5.15;;;17.20;60.50;;;;;;5050807;28;20528;-59
2021/12/16 07:52:50;;;;;;;5.22;4.80;;;17.30;60.40;;;;;;5051606;28;20179;-59
2021/12/16 07:55:16;;;;;;;5.82;5.05;;;17.50;60.40;;;;;;5052139;28;20171;-59
2021/12/16 07:57:41;;;;;;;5.68;5.07;;;17.50;60.00;;;;;;5050641;28;20186;-60
2021/12/16 08:00:12;;;;;;;4.63;4.22;;;17.80;59.70;;;;;;5051720;28;20171;-59
2021/12/16 08:02:38;;;;;;;4.78;4.38;;;17.90;59.50;;;;;;5051454;28;20530;-59
2021/12/16 08:05:05;;;;;;;5.00;4.60;;;18.00;59.40;;;;;;5050780;28;20182;-58
2021/12/16 08:07:31;;;;;;;5.15;4.65;;;18.10;59.20;;;;;;5051540;28;20271;-59
2021/12/16 08:09:56;;;;;;;4.65;4.22;;;18.20;59.10;;;;;;5051659;28;20266;-64
2021/12/16 08:12:22;;;;;;;5.45;4.50;;;18.30;58.90;;;;;;5050288;28;20258;-65
2021/12/16 08:14:47;;;;;;;4.45;4.05;;;18.40;58.80;;;;;;5051290;28;20214;-65
2021/12/16 08:17:13;;;;;;;4.97;3.72;;;18.50;58.50;;;;;;5050442;28;20255;-66
2021/12/16 08:19:39;;;;;;;5.10;4.35;;;18.60;58.30;;;;;;5051222;28;20179;-66
2021/12/16 08:22:05;;;;;;;5.32;3.83;;;18.60;58.80;;;;;;5051524;28;20175;-66
2021/12/16 08:24:30;;;;;;;6.32;4.47;;;18.70;59.20;;;;;;5050417;28;20210;-66
2021/12/16 08:26:56;;;;;;;5.22;4.45;;;18.70;59.40;;;;;;5051501;28;20178;-66
2021/12/16 08:29:21;;;;;;;5.40;4.82;;;18.70;59.50;;;;;;5050946;28;20207;-67
2021/12/16 08:31:47;;;;;;;4.82;4.28;;;18.70;59.50;;;;;;5050460;28;20175;-66
2021/12/16 08:34:13;;;;;;;5.15;4.65;;;18.70;59.50;;;;;;5051212;28;20183;-66
2021/12/16 08:36:39;;;;;;;6.53;4.65;;;18.70;59.60;;;;;;5050844;28;20213;-68
2021/12/16 08:39:07;;;;;;;5.18;4.55;;;18.70;59.80;;;;;;5049971;28;20325;-66
2021/12/16 08:41:38;;;;;;;4.80;3.88;;;18.60;59.90;;;;;;5048095;28;20532;-66
2021/12/16 08:44:04;;;;;;;5.93;4.68;;;18.60;60.10;;;;;;5047997;28;20665;-65
2021/12/16 08:46:32;;;;;;;5.15;4.15;;;18.50;60.40;;;;;;5049497;28;20214;-66
2021/12/16 08:48:58;;;;;;;4.45;4.05;;;18.40;60.60;;;;;;5050630;28;20233;-65
2021/12/16 08:51:26;;;;;;;5.40;4.78;;;18.40;60.70;;;;;;5050114;28;20610;-65
2021/12/16 08:53:51;;;;;;;6.18;4.80;;;18.50;60.80;;;;;;5050562;28;20320;-70
2021/12/16 08:56:17;;;;;;;6.85;4.18;;;18.50;60.60;;;;;;5051133;28;20205;-67
2021/12/16 08:58:43;;;;;;;5.68;5.07;;;18.50;60.50;;;;;;5053909;28;20179;-68
2021/12/16 09:01:11;;;;;;;6.47;4.85;;;18.50;60.40;;;;;;5054058;28;20229;-68
2021/12/16 09:03:39;;;;;;;8.20;4.85;;;18.50;60.30;;;;;;5054643;28;20574;-66
2021/12/16 09:06:05;;;;;;;6.97;4.80;;;18.50;60.40;;;;;;5054726;28;20262;-65
2021/12/16 09:08:30;;;;;;;5.38;4.75;;;18.40;60.50;;;;;;5053312;28;20314;-64
2021/12/16 09:10:56;;;;;;;4.70;4.30;;;18.40;60.40;;;;;;5054748;28;20171;-65
2021/12/16 09:13:22;;;;;;;5.35;4.20;;;18.30;60.50;;;;;;5054281;28;20674;-65
2021/12/16 09:15:56;;;;;;;4.78;4.25;;;18.30;60.70;;;;;;5054114;28;20253;-65
2021/12/16 09:18:27;;;;;;;5.40;4.25;;;18.30;60.60;;;;;;5054265;28;20268;-65
2021/12/16 09:20:52;;;;;;;4.53;4.00;;;18.30;60.60;;;;;;5053939;28;20655;-65
2021/12/16 09:23:18;;;;;;;6.05;4.15;;;18.30;60.40;;;;;;5054236;28;20217;-66
2021/12/16 09:25:44;;;;;;;6.00;4.10;;;18.40;60.20;;;;;;5053982;28;20225;-66
2021/12/16 09:28:10;;;;;;;4.38;3.78;;;18.40;60.00;;;;;;5053773;28;20215;-64
2021/12/16 09:30:36;;;;;;;4.80;3.95;;;18.40;59.90;;;;;;5053535;28;20171;-64
2021/12/16 09:33:05;;;;;;;4.93;4.07;;;18.40;59.90;;;;;;5054233;28;20210;-65
2021/12/16 09:35:33;;;;;;;6.53;3.78;;;18.40;60.00;;;;;;5053336;28;20175;-64
2021/12/16 09:38:02;;;;;;;5.10;3.97;;;18.30;60.10;;;;;;5054129;28;20179;-65
2021/12/16 09:40:28;;;;;;;6.75;4.45;;;18.20;60.20;;;;;;5053758;28;20195;-64
2021/12/16 09:42:54;;;;;;;5.22;4.18;;;18.20;60.40;;;;;;5053298;28;20667;-65
2021/12/16 09:45:21;;;;;;;6.30;4.00;;;18.20;60.40;;;;;;5053653;28;20206;-64
2021/12/16 09:47:46;;;;;;;4.72;3.97;;;18.20;60.50;;;;;;5053683;28;20745;-65
2021/12/16 09:50:16;;;;;;;4.60;3.75;;;18.20;60.40;;;;;;5053444;28;20179;-64
2021/12/16 09:52:42;;;;;;;4.10;3.70;;;18.20;60.40;;;;;;5053638;28;20756;-65
2021/12/16 09:55:08;;;;;;;4.10;3.53;;;18.10;60.40;;;;;;5053735;28;20195;-64
2021/12/16 09:57:36;;;;;;;4.90;3.67;;;18.10;60.40;;;;;;5052869;28;20210;-65
2021/12/16 10:00:05;;;;;;;4.65;4.20;;;18.10;60.50;;;;;;5053838;28;20217;-65
2021/12/16 10:02:30;;;;;;;4.47;3.85;;;18.00;60.70;;;;;;5053517;28;20202;-65
2021/12/16 10:04:56;;;;;;;5.43;3.47;;;18.00;60.80;;;;;;5052824;28;20646;-65
2021/12/16 10:07:24;;;;;;;6.80;3.90;;;17.90;60.80;;;;;;5053225;28;20248;-64
2021/12/16 10:09:50;;;;;;;4.03;3.60;;;17.90;60.80;;;;;;5050913;28;20246;-66
2021/12/16 10:12:20;;;;;;;5.10;3.95;;;18.00;60.90;;;;;;5053763;28;20214;-65
2021/12/16 10:17:29;;;;;;;4.35;3.53;;;18.00;60.80;;;;;;5052491;28;20178;-65
2021/12/16 10:19:55;;;;;;;3.70;3.22;;;18.00;60.80;;;;;;5053391;28;20183;-66
2021/12/16 10:22:32;;;;;;;5.25;3.90;;;18.00;60.70;;;;;;5053102;28;20175;-65
2021/12/16 10:25:34;;;;;;;5.30;4.15;;;18.00;60.70;;;;;;5052814;28;20266;-66
2021/12/16 10:28:18;;;;;;;4.65;3.38;;;17.90;60.70;;;;;;5053348;28;20347;-65
2021/12/16 10:30:48;;;;;;;4.13;3.72;;;17.90;60.70;;;;;;5051974;28;20182;-66
2021/12/16 10:33:23;;;;;;;4.78;3.83;;;17.90;60.80;;;;;;5053251;28;20197;-65
2021/12/16 10:35:52;;;;;;;4.03;3.55;;;17.80;61.00;;;;;;5053183;28;20174;-66
2021/12/16 10:38:19;;;;;;;5.30;3.97;;;17.80;61.00;;;;;;5052277;28;20179;-65
2021/12/16 10:40:47;;;;;;;3.83;3.45;;;17.80;61.10;;;;;;5052907;28;20171;-65
2021/12/16 10:43:25;;;;;;;3.53;3.22;;;17.90;61.10;;;;;;5052952;28;20227;-65
2021/12/16 10:45:56;;;;;;;5.65;3.50;;;17.90;60.90;;;;;;5052571;28;20247;-66
2021/12/16 10:48:23;;;;;;;3.78;3.40;;;17.90;60.90;;;;;;5052556;28;20224;-64
2021/12/16 10:51:04;;;;;;;3.72;3.42;;;17.90;60.80;;;;;;5052850;28;20282;-64
2021/12/16 10:53:54;;;;;;;3.63;3.33;;;17.70;60.80;;;;;;5051550;28;20261;-65
2021/12/16 10:56:28;;;;;;;3.40;3.10;;;17.80;60.90;;;;;;5052289;28;20290;-65
2021/12/16 10:59:01;;;;;;;4.45;3.60;;;17.80;61.00;;;;;;5052196;28;20178;-67
2021/12/16 11:01:47;;;;;;;3.85;3.35;;;17.70;61.10;;;;;;5052295;28;20175;-65
2021/12/16 11:04:32;;;;;;;4.97;3.38;;;17.70;61.10;;;;;;5052609;28;20258;-64
2021/12/16 11:07:09;;;;;;;3.85;3.50;;;17.70;61.20;;;;;;5051624;28;20175;-64
2021/12/16 11:09:47;;;;;;;3.83;3.42;;;17.80;61.20;;;;;;5051961;28;20211;-64
2021/12/16 11:12:15;;;;;;;3.70;3.17;;;17.80;61.10;;;;;;5052185;28;20650;-65
2021/12/16 11:14:46;;;;;;;4.50;3.53;;;17.80;61.00;;;;;;5051444;28;20179;-67
2021/12/16 11:17:13;;;;;;;3.80;3.08;;;17.80;61.00;;;;;;5052502;28;20646;-65
2021/12/16 11:19:58;;;;;;;4.43;3.25;;;17.80;61.00;;;;;;5051814;28;20213;-66
2021/12/16 11:22:29;;;;;;;3.75;3.28;;;17.70;60.90;;;;;;5051245;28;20262;-66
2021/12/16 11:24:55;;;;;;;4.03;3.63;;;17.70;61.10;;;;;;5052294;28;20179;-66
2021/12/16 11:27:22;;;;;;;3.00;2.80;;;17.70;61.20;;;;;;5051253;28;20167;-65
2021/12/16 11:29:48;;;;;;;4.30;3.20;;;17.60;61.00;;;;;;5052063;28;20215;-65
2021/12/16 11:32:38;;;;;;;3.63;3.33;;;17.60;61.10;;;;;;5051892;28;20521;-64
2021/12/16 11:35:40;;;;;;;3.72;3.40;;;17.60;61.20;;;;;;5051198;28;20201;-64
2021/12/16 11:38:13;;;;;;;3.92;3.17;;;17.60;61.20;;;;;;5052048;28;20182;-65
2021/12/16 11:40:54;;;;;;;3.35;3.05;;;17.60;61.30;;;;;;5051425;28;20293;-66
2021/12/16 11:43:33;;;;;;;3.50;3.08;;;17.50;61.30;;;;;;5050856;28;20261;-65
2021/12/16 11:45:59;;;;;;;3.70;3.40;;;17.50;61.30;;;;;;5051847;28;20258;-65
2021/12/16 11:48:30;;;;;;;3.40;3.03;;;17.50;61.40;;;;;;5050677;28;20287;-64
2021/12/16 11:51:07;;;;;;;3.80;3.45;;;17.50;61.40;;;;;;5051734;28;20199;-65
2021/12/16 11:53:42;;;;;;;4.20;3.60;;;17.50;61.50;;;;;;5051488;28;20212;-65
2021/12/16 11:56:07;;;;;;;3.75;3.30;;;17.50;61.60;;;;;;5051107;28;20187;-65
2021/12/16 11:58:33;;;;;;;4.63;3.42;;;17.50;61.60;;;;;;5051238;28;20179;-65
2021/12/16 12:00:58;;;;;;;3.38;3.08;;;17.50;61.60;;;;;;5051449;28;20168;-66
2021/12/16 12:03:31;;;;;;;3.67;3.38;;;17.50;61.40;;;;;;5049268;28;20187;-65
2021/12/16 12:05:57;;;;;;;3.40;3.10;;;17.60;61.40;;;;;;5050473;28;20183;-67
2021/12/16 12:08:27;;;;;;;5.13;3.95;;;17.60;61.40;;;;;;5050993;28;20207;-65
2021/12/16 12:11:02;;;;;;;6.10;4.30;;;17.60;61.30;;;;;;5050649;28;20634;-65
2021/12/16 12:13:28;;;;;;;7.47;4.97;;;17.50;61.20;;;;;;5051068;28;20182;-65
2021/12/16 12:16:04;;;;;;;6.00;5.00;;;17.50;61.40;;;;;;5051290;28;20179;-65
2021/12/16 12:18:50;;;;;;;5.78;4.72;;;17.50;61.60;;;;;;5050349;28;20501;-63
2021/12/16 12:21:46;;;;;;;7.13;5.18;;;17.40;61.50;;;;;;5051715;28;20194;-65
2021/12/16 12:24:18;;;;;;;6.97;5.00;;;17.50;62.50;;;;;;5050783;28;20171;-66
2021/12/16 12:26:48;;;;;;;6.45;5.82;;;17.50;61.70;;;;;;5051097;28;20552;-65
2021/12/16 12:29:16;;;;;;;6.13;5.18;;;17.50;61.70;;;;;;5051145;28;20211;-65
2021/12/16 12:31:49;;;;;;;7.88;5.10;;;17.50;61.60;;;;;;5050347;28;20658;-66
2021/12/16 12:34:15;;;;;;;6.20;5.60;;;17.60;61.70;;;;;;5055341;28;20175;-64
2021/12/16 12:36:40;;;;;;;7.45;5.72;;;17.50;61.70;;;;;;5055208;28;20174;-65
2021/12/16 12:39:07;;;;;;;6.63;5.65;;;17.50;61.70;;;;;;5054697;28;20175;-65
2021/12/16 12:41:33;;;;;;;6.43;5.50;;;17.50;61.80;;;;;;5054777;28;20240;-65
2021/12/16 12:44:01;;;;;;;7.60;5.20;;;17.50;61.90;;;;;;5055424;28;20618;-65
2021/12/16 12:46:26;;;;;;;7.25;6.03;;;17.50;62.00;;;;;;5053891;28;20300;-64
2021/12/16 12:48:53;;;;;;;6.32;5.72;;;17.50;62.00;;;;;;5054003;28;20240;-64
2021/12/16 12:51:23;;;;;;;6.00;5.40;;;17.50;62.40;;;;;;5055015;28;20175;-64
2021/12/16 12:53:51;;;;;;;6.72;5.78;;;17.60;62.00;;;;;;5052759;28;20210;-65
2021/12/16 12:56:28;;;;;;;9.02;5.68;;;17.60;61.80;;;;;;5054952;28;20502;-65
2021/12/16 12:59:01;;;;;;;7.50;5.30;;;17.60;61.60;;;;;;5054325;28;20171;-67
2021/12/16 13:01:48;;;;;;;7.03;5.32;;;17.60;61.80;;;;;;5054683;28;20183;-65
2021/12/16 13:04:30;;;;;;;6.35;5.25;;;17.60;61.70;;;;;;5055112;28;20175;-67
2021/12/16 13:07:05;;;;;;;7.82;5.38;;;17.60;61.70;;;;;;5054241;28;20179;-66
2021/12/16 13:09:44;;;;;;;5.55;4.43;;;17.60;61.70;;;;;;5058929;28;20210;-67
2021/12/16 13:12:23;;;;;;;7.05;5.72;;;17.60;61.80;;;;;;5058366;28;20323;-68
2021/12/16 13:14:51;;;;;;;5.55;4.88;;;17.50;61.70;;;;;;5056922;28;20204;-68
2021/12/16 13:23:40;;;;;;;5.60;5.03;;;17.60;61.60;;;;;;5055251;28;20182;-67
2021/12/16 13:29:12;;;;;;;6.63;5.47;;;17.60;61.60;;;;;;5073560;28;20289;-68
2021/12/16 13:31:45;;;;;;;6.32;5.70;;;17.50;61.40;;;;;;5072726;28;20175;-67
2021/12/16 13:34:26;;;;;;;6.22;5.13;;;17.50;61.60;;;;;;5073583;28;20190;-66
2021/12/16 13:36:56;;;;;;;6.93;5.38;;;17.50;61.60;;;;;;5074294;28;20202;-66
2021/12/16 13:39:23;;;;;;;5.95;5.35;;;17.50;61.70;;;;;;5073879;28;20167;-66
2021/12/16 13:42:08;;;;;;;6.57;5.45;;;17.50;61.60;;;;;;5058787;28;20183;-63
2021/12/16 13:44:45;;;;;;;6.28;5.53;;;17.50;61.60;;;;;;5052785;28;20171;-64
2021/12/16 13:58:41;;;;;;;5.80;4.55;;;17.60;62.10;;;;;;5043512;28;20187;-64
2021/12/16 14:06:20;;;;;;;7.80;6.13;;;17.60;62.20;;;;;;5053730;28;20171;-63
2021/12/16 14:08:48;;;;;;;6.07;5.15;;;17.60;62.10;;;;;;5053598;28;20211;-64
2021/12/16 14:12:16;;;;;;;7.70;5.22;;;17.70;62.00;;;;;;5053513;28;20183;-64
2021/12/16 14:17:53;;;;;;;6.57;4.78;;;17.70;61.80;;;;;;5069863;28;20217;-64
2021/12/16 14:23:36;;;;;;;6.40;4.22;;;17.70;61.90;;;;;;5072533;28;20220;-64
2021/12/16 14:34:50;;;;;;;9.23;4.90;;;18.10;61.00;;;;;;5073241;28;20178;-65
2021/12/16 14:37:11;;;;;;;5.75;4.38;;;18.30;60.60;;;;;;5072934;28;20182;-65
2021/12/16 14:40:10;;;;;;;4.82;4.15;;;18.40;60.20;;;;;;5072766;28;20174;-65
2021/12/16 14:42:59;;;;;;;7.03;3.95;;;18.60;59.80;;;;;;5072694;28;20273;-65
2021/12/16 14:48:32;;;;;;;5.18;4.18;;;19.00;58.90;;;;;;5072552;28;20309;-65
2021/12/16 14:51:11;;;;;;;4.40;4.00;;;19.20;58.60;;;;;;5072853;28;20187;-66
2021/12/16 14:53:50;;;;;;;6.55;3.97;;;19.30;58.30;;;;;;5072459;28;20209;-63
2021/12/16 14:56:20;;;;;;;6.50;4.68;;;19.40;58.10;;;;;;5072098;28;20707;-64
2021/12/16 14:58:54;;;;;;;7.53;4.65;;;19.50;58.00;;;;;;5071884;28;20179;-64
2021/12/16 15:01:23;;;;;;;5.05;4.45;;;19.60;57.90;;;;;;5072122;28;20625;-63
2021/12/16 15:03:49;;;;;;;5.43;4.10;;;19.70;57.90;;;;;;5072567;28;20189;-66
2021/12/16 15:06:16;;;;;;;6.00;4.30;;;19.70;57.90;;;;;;5071599;28;20669;-66
2021/12/16 15:08:51;;;;;;;7.38;4.25;;;19.70;58.00;;;;;;5072203;28;20213;-65
2021/12/16 15:11:30;;;;;;;5.78;4.35;;;19.70;57.90;;;;;;5072424;28;20174;-65
2021/12/16 15:14:01;;;;;;;3.85;3.50;;;19.60;58.00;;;;;;5071631;28;20186;-63
2021/12/16 15:16:58;;;;;;;4.65;3.75;;;19.60;58.20;;;;;;5053046;28;20530;-61
2021/12/16 15:36:48;;;;;;;5.03;4.25;;;18.80;59.80;;;;;;5052427;28;20182;-65
2021/12/16 15:39:37;;;;;;;4.38;3.97;;;18.80;60.00;;;;;;5052264;28;20621;-65
2021/12/16 15:44:57;;;;;;;5.68;4.05;;;18.70;60.20;;;;;;5051800;28;20182;-65
2021/12/16 15:47:23;;;;;;;4.68;4.20;;;18.60;60.30;;;;;;5050642;28;20368;-65
2021/12/16 15:49:49;;;;;;;4.38;3.83;;;18.60;60.30;;;;;;5051728;28;20243;-64
2021/12/16 15:52:14;;;;;;;4.25;3.85;;;18.60;60.40;;;;;;5051833;28;20179;-64
2021/12/16 15:54:46;;;;;;;6.38;3.78;;;18.60;60.30;;;;;;5050861;28;20626;-64
2021/12/16 15:57:12;;;;;;;6.60;4.40;;;18.60;60.30;;;;;;5051733;28;20187;-65
2021/12/16 15:59:47;;;;;;;5.32;3.65;;;18.60;60.20;;;;;;5051055;28;20252;-65
2021/12/16 16:02:19;;;;;;;4.30;3.90;;;18.60;60.30;;;;;;5051282;28;20250;-65
2021/12/16 16:04:44;;;;;;;5.93;4.40;;;18.60;60.50;;;;;;5050565;28;20179;-66
2021/12/16 16:07:12;;;;;;;7.05;4.43;;;18.50;60.60;;;;;;5051287;28;20536;-64
2021/12/16 16:09:39;;;;;;;3.80;3.50;;;18.50;60.90;;;;;;5050497;28;20230;-60
2021/12/16 16:12:05;;;;;;;6.13;3.95;;;18.50;60.90;;;;;;5051838;28;20171;-59
2021/12/16 16:14:32;;;;;;;4.32;3.92;;;18.50;61.00;;;;;;5054064;28;20675;-58
2021/12/16 16:16:59;;;;;;;5.45;4.13;;;18.50;60.80;;;;;;5071193;28;20191;-59
2021/12/16 16:19:27;;;;;;;5.75;3.88;;;18.60;60.60;;;;;;5071374;28;20186;-59
2021/12/16 16:21:55;;;;;;;6.20;3.95;;;18.60;60.40;;;;;;5071733;28;20213;-59
2021/12/16 16:24:23;;;;;;;7.65;4.30;;;18.60;60.40;;;;;;5070697;28;20185;-58
2021/12/16 16:26:51;;;;;;;5.43;3.95;;;18.50;60.50;;;;;;5071618;28;20182;-58
2021/12/16 16:29:19;;;;;;;6.45;3.88;;;18.50;60.60;;;;;;5071557;28;20221;-60